Time;durP1;ratioP1;P1;durP2;ratioP2;P2;SDS_P1;SDS_P2;PMS_P1;PMS_P2;Temp;Humidity;BMP_temperature;BMP_pressure;BME280_temperature;BME280_humidity;BME280_pressure;Samples;Min_cycle;Max_cycle;Signal;HPM_P1;HPM_P2
2022/04/03 00:02:25;;;;;;;4.60;1.03;;;21.90;47.90;;;;;;5069542;28;20183;-78
2022/04/03 00:04:52;;;;;;;2.37;1.00;;;21.90;46.70;;;;;;5069481;28;20171;-77
2022/04/03 00:07:19;;;;;;;4.60;1.33;;;21.80;47.00;;;;;;5068491;28;20175;-78
2022/04/03 00:09:47;;;;;;;4.60;1.00;;;21.80;48.10;;;;;;5067043;28;20700;-78
2022/04/03 00:12:14;;;;;;;2.00;1.10;;;21.80;47.40;;;;;;5067911;28;20184;-77
2022/04/03 00:14:42;;;;;;;3.73;1.10;;;21.90;47.90;;;;;;5068808;28;20178;-77
2022/04/03 00:17:09;;;;;;;3.57;1.00;;;22.10;47.10;;;;;;5068816;28;20325;-80
2022/04/03 00:19:36;;;;;;;2.73;1.13;;;22.20;46.50;;;;;;5069171;28;20209;-88
2022/04/03 00:22:04;;;;;;;1.73;1.00;;;22.40;46.80;;;;;;5061255;28;20184;-72
2022/04/03 00:24:31;;;;;;;2.70;0.90;;;22.50;46.90;;;;;;5052715;28;20182;-80
2022/04/03 00:26:59;;;;;;;4.40;1.20;;;22.70;45.10;;;;;;5068715;28;20225;-78
2022/04/03 00:29:26;;;;;;;2.30;0.97;;;22.80;45.80;;;;;;5067753;28;20209;-75
2022/04/03 00:31:53;;;;;;;2.10;0.83;;;22.90;43.20;;;;;;5051038;28;20699;-80
2022/04/03 00:34:21;;;;;;;5.20;1.07;;;23.10;42.60;;;;;;5067093;28;20187;-78
2022/04/03 00:36:48;;;;;;;2.80;1.00;;;22.80;43.30;;;;;;5068357;28;20176;-83
2022/04/03 00:39:16;;;;;;;2.43;1.20;;;22.70;45.00;;;;;;5067792;28;20172;-78
2022/04/03 00:41:43;;;;;;;1.30;0.80;;;22.50;44.80;;;;;;5065316;28;20228;-74
2022/04/03 00:44:11;;;;;;;2.50;1.33;;;22.30;45.80;;;;;;5054347;28;20272;-77
2022/04/03 00:46:41;;;;;;;2.73;1.10;;;22.30;46.30;;;;;;5087421;28;20176;-78
2022/04/03 00:49:08;;;;;;;2.67;1.17;;;22.40;46.10;;;;;;5053357;28;20180;-86
2022/04/03 00:51:35;;;;;;;6.47;1.10;;;22.70;45.00;;;;;;5053485;28;20212;-81
2022/04/03 00:54:03;;;;;;;4.00;0.97;;;22.90;44.50;;;;;;5054955;28;20270;-85
2022/04/03 00:56:32;;;;;;;2.33;1.00;;;23.00;44.40;;;;;;5055321;28;20179;-78
2022/04/03 00:59:00;;;;;;;2.50;0.90;;;22.80;44.20;;;;;;5054208;28;20176;-76
2022/04/03 01:01:27;;;;;;;4.40;0.90;;;22.70;44.80;;;;;;5054858;28;20588;-76
2022/04/03 01:03:55;;;;;;;3.37;0.90;;;22.70;46.20;;;;;;5054097;28;20259;-77
2022/04/03 01:06:22;;;;;;;2.23;0.97;;;22.70;45.30;;;;;;5055065;28;20180;-80
2022/04/03 01:08:49;;;;;;;5.87;1.37;;;22.70;45.50;;;;;;5054210;28;20211;-81
2022/04/03 01:11:22;;;;;;;2.13;1.20;;;23.00;45.00;;;;;;5045191;28;20215;-77
2022/04/03 01:13:52;;;;;;;2.30;1.10;;;23.00;44.70;;;;;;5054072;28;20199;-79
2022/04/03 01:16:20;;;;;;;4.60;1.40;;;23.30;43.80;;;;;;5053124;28;20184;-76
2022/04/03 01:18:48;;;;;;;2.30;1.20;;;23.30;44.10;;;;;;5054695;28;20234;-83
2022/04/03 01:21:16;;;;;;;2.37;1.00;;;23.40;44.50;;;;;;5053922;28;20214;-76
2022/04/03 01:23:44;;;;;;;1.93;1.00;;;23.50;43.10;;;;;;5053970;28;20180;-78
2022/04/03 01:26:11;;;;;;;3.00;1.50;;;23.50;44.70;;;;;;5054115;28;20203;-78
2022/04/03 01:28:39;;;;;;;4.33;1.00;;;23.60;43.90;;;;;;5054095;28;20188;-76
2022/04/03 01:31:08;;;;;;;3.13;1.03;;;23.60;42.70;;;;;;5052338;28;20692;-78
2022/04/03 01:33:36;;;;;;;6.60;1.60;;;23.70;42.10;;;;;;5051824;28;20593;-85
2022/04/03 01:36:04;;;;;;;2.10;0.90;;;23.60;40.80;;;;;;5053788;28;20274;-77
2022/04/03 01:38:34;;;;;;;4.33;1.50;;;23.90;39.90;;;;;;5053051;28;20227;-78
2022/04/03 01:41:01;;;;;;;1.97;1.00;;;24.50;38.30;;;;;;5052255;28;20662;-81
2022/04/03 01:43:29;;;;;;;2.17;0.80;;;24.80;37.40;;;;;;5054325;28;20187;-79
2022/04/03 01:45:56;;;;;;;2.77;1.00;;;24.70;37.80;;;;;;5054300;28;20180;-76
2022/04/03 01:48:24;;;;;;;2.13;0.80;;;24.80;36.40;;;;;;5057043;28;20187;-77
2022/04/03 01:50:51;;;;;;;3.53;0.90;;;24.60;36.20;;;;;;5064616;28;20230;-81
2022/04/03 01:53:19;;;;;;;3.53;0.97;;;24.60;36.80;;;;;;5048809;28;20184;-75
2022/04/03 01:55:57;;;;;;;3.13;0.97;;;24.90;36.70;;;;;;5052087;28;20183;-78
2022/04/03 01:58:24;;;;;;;4.47;1.10;;;25.00;35.30;;;;;;5047522;28;20638;-75
2022/04/03 02:00:51;;;;;;;4.97;0.93;;;25.20;35.00;;;;;;5050595;28;20184;-76
2022/04/03 02:03:19;;;;;;;6.10;0.93;;;25.10;34.80;;;;;;5050586;28;20180;-79
2022/04/03 02:05:46;;;;;;;2.53;1.03;;;25.20;35.60;;;;;;5049664;28;20514;-79
2022/04/03 02:08:13;;;;;;;2.67;1.20;;;25.20;34.30;;;;;;5051392;28;20221;-75
2022/04/03 02:10:41;;;;;;;1.43;0.87;;;24.80;35.70;;;;;;5053785;28;20212;-78
2022/04/03 02:13:08;;;;;;;2.17;1.10;;;24.70;36.60;;;;;;5050195;28;20184;-80
2022/04/03 02:15:35;;;;;;;2.90;1.10;;;24.90;35.40;;;;;;5051322;28;20184;-85
2022/04/03 02:18:03;;;;;;;2.27;0.80;;;25.00;34.70;;;;;;5047398;28;20179;-80
2022/04/03 02:20:33;;;;;;;3.30;0.97;;;25.20;35.30;;;;;;5050151;28;20209;-78
2022/04/03 02:23:00;;;;;;;4.80;0.90;;;25.20;35.30;;;;;;5052584;28;20210;-87
2022/04/03 02:25:29;;;;;;;4.60;1.10;;;25.00;35.30;;;;;;5052017;28;20187;-83
2022/04/03 02:27:56;;;;;;;2.43;1.00;;;24.80;36.00;;;;;;5046439;28;20634;-82
2022/04/03 02:30:24;;;;;;;2.53;1.00;;;24.60;35.90;;;;;;5052098;28;20294;-82
2022/04/03 02:32:51;;;;;;;4.07;1.10;;;24.50;36.00;;;;;;5049254;28;20379;-87
2022/04/03 02:35:19;;;;;;;5.87;1.10;;;24.50;36.10;;;;;;5052215;28;20180;-78
2022/04/03 02:37:46;;;;;;;6.93;1.00;;;24.70;36.10;;;;;;5052973;28;20183;-78
2022/04/03 02:40:16;;;;;;;3.57;1.17;;;24.90;35.00;;;;;;5051888;28;20175;-77
2022/04/03 02:42:44;;;;;;;4.77;1.30;;;24.90;35.80;;;;;;5051931;28;20625;-80
2022/04/03 02:45:13;;;;;;;3.80;0.87;;;24.70;35.80;;;;;;5051181;28;20545;-80
2022/04/03 02:47:40;;;;;;;4.77;1.10;;;24.90;35.20;;;;;;5038713;28;20287;-82
2022/04/03 02:50:09;;;;;;;4.07;1.03;;;25.30;35.80;;;;;;5052761;28;20221;-82
2022/04/03 02:52:36;;;;;;;2.27;1.03;;;25.60;34.00;;;;;;5051667;28;20602;-80
2022/04/03 02:55:04;;;;;;;2.00;0.80;;;25.30;34.90;;;;;;5052221;28;20263;-76
2022/04/03 02:57:31;;;;;;;2.77;0.90;;;25.50;34.80;;;;;;5053568;28;20190;-77
2022/04/03 02:59:59;;;;;;;5.03;0.90;;;25.20;35.00;;;;;;5052993;28;20172;-75
2022/04/03 03:02:26;;;;;;;1.63;0.80;;;24.80;36.30;;;;;;5053144;28;20191;-80
2022/04/03 03:04:54;;;;;;;1.40;0.97;;;25.20;35.80;;;;;;5051821;28;20188;-84
2022/04/03 03:07:21;;;;;;;2.60;1.00;;;25.90;35.20;;;;;;5052223;28;20179;-79
2022/04/03 03:09:49;;;;;;;3.43;1.13;;;25.90;34.20;;;;;;5053149;28;20203;-81
2022/04/03 03:12:17;;;;;;;1.67;0.90;;;25.60;35.10;;;;;;5052329;28;20211;-79
2022/04/03 03:14:45;;;;;;;3.20;0.90;;;25.80;34.90;;;;;;5054116;28;20270;-80
2022/04/03 03:17:12;;;;;;;2.10;0.80;;;25.70;34.60;;;;;;5052554;28;20227;-78
2022/04/03 03:19:39;;;;;;;4.43;1.50;;;25.90;33.70;;;;;;5053015;28;20173;-83
2022/04/03 03:22:07;;;;;;;4.37;1.00;;;26.30;33.90;;;;;;5053272;28;20172;-79
2022/04/03 03:24:35;;;;;;;2.00;0.93;;;26.70;33.00;;;;;;5052924;28;20180;-82
2022/04/03 03:27:04;;;;;;;2.33;0.87;;;27.00;32.50;;;;;;5052753;28;20172;-79
2022/04/03 03:29:31;;;;;;;2.17;1.10;;;27.00;32.80;;;;;;5053025;28;20184;-80
2022/04/03 03:31:59;;;;;;;6.57;1.30;;;27.10;32.50;;;;;;5052721;28;20638;-81
2022/04/03 03:34:26;;;;;;;4.90;1.10;;;27.00;33.90;;;;;;5084999;28;20171;-87
2022/04/03 03:36:57;;;;;;;5.60;1.10;;;27.10;33.20;;;;;;5052899;28;20168;-81
2022/04/03 03:39:26;;;;;;;4.00;1.10;;;27.10;33.10;;;;;;5085005;28;20187;-84
2022/04/03 03:41:55;;;;;;;2.17;1.00;;;26.80;32.90;;;;;;5051835;28;20798;-81
2022/04/03 03:44:25;;;;;;;2.40;0.87;;;26.80;33.40;;;;;;5048825;28;20896;-77
2022/04/03 03:46:53;;;;;;;3.10;1.20;;;27.20;32.30;;;;;;5052745;28;20204;-82
2022/04/03 03:49:20;;;;;;;1.83;0.80;;;27.10;31.90;;;;;;5046283;28;20226;-84
2022/04/03 03:51:47;;;;;;;5.30;1.23;;;27.10;32.40;;;;;;5051313;28;20171;-78
2022/04/03 03:54:15;;;;;;;4.17;1.10;;;27.30;31.90;;;;;;5051778;28;20184;-83
2022/04/03 03:56:42;;;;;;;2.03;1.10;;;28.00;31.40;;;;;;5050112;28;20275;-82
2022/04/03 03:59:09;;;;;;;5.35;0.90;;;28.60;31.30;;;;;;5047659;28;20183;-76
2022/04/03 04:01:37;;;;;;;2.03;1.10;;;28.90;30.70;;;;;;5050109;28;20211;-80
2022/04/03 04:04:04;;;;;;;5.10;1.03;;;28.90;29.90;;;;;;5048789;28;20708;-81
2022/04/03 04:06:31;;;;;;;3.70;1.15;;;28.50;30.50;;;;;;5051390;28;20187;-78
2022/04/03 04:08:59;;;;;;;5.23;1.00;;;28.50;29.10;;;;;;5047685;28;20700;-78
2022/04/03 04:11:26;;;;;;;2.17;0.88;;;28.30;29.80;;;;;;5051315;28;20275;-78
2022/04/03 04:13:53;;;;;;;5.60;1.00;;;28.10;30.60;;;;;;5051908;28;20191;-88
2022/04/03 04:16:21;;;;;;;1.50;1.07;;;28.70;29.90;;;;;;5049320;28;20219;-78
2022/04/03 04:18:48;;;;;;;3.72;0.75;;;28.50;29.50;;;;;;5053771;28;20192;-80
2022/04/03 04:21:17;;;;;;;2.57;1.00;;;28.80;29.30;;;;;;5053106;28;20203;-78
2022/04/03 04:23:44;;;;;;;3.07;0.90;;;29.10;28.10;;;;;;5054160;28;20195;-78
2022/04/03 04:26:13;;;;;;;5.30;0.73;;;29.30;28.30;;;;;;5049392;28;20179;-77
2022/04/03 04:28:41;;;;;;;1.77;0.63;;;29.80;28.40;;;;;;5055391;28;20180;-86
2022/04/03 04:31:08;;;;;;;5.77;1.30;;;29.90;27.50;;;;;;5053945;28;20561;-82
2022/04/03 04:33:35;;;;;;;6.40;0.90;;;30.00;27.00;;;;;;5051528;28;20187;-86
2022/04/03 04:36:04;;;;;;;2.28;0.95;;;29.90;27.10;;;;;;5053487;28;20191;-87
2022/04/03 04:38:31;;;;;;;1.38;1.00;;;30.00;27.80;;;;;;5054794;28;20198;-80
2022/04/03 04:40:59;;;;;;;2.88;0.93;;;29.60;28.80;;;;;;5049495;28;20257;-78
2022/04/03 04:43:26;;;;;;;5.50;1.20;;;29.50;28.40;;;;;;5051482;28;20204;-86
2022/04/03 04:45:53;;;;;;;3.33;0.80;;;29.30;28.60;;;;;;5050129;28;20192;-87
2022/04/03 04:48:21;;;;;;;3.33;0.97;;;29.10;29.10;;;;;;5050187;28;20203;-77
2022/04/03 04:50:48;;;;;;;4.00;1.00;;;28.70;28.70;;;;;;5048491;28;20271;-87
2022/04/03 04:53:15;;;;;;;4.97;0.90;;;28.10;30.20;;;;;;5054231;28;20662;-80
2022/04/03 04:55:44;;;;;;;2.60;1.00;;;28.50;29.70;;;;;;5054455;28;20216;-76
2022/04/03 04:58:11;;;;;;;5.17;1.37;;;29.10;28.70;;;;;;5044460;28;20184;-81
2022/04/03 05:00:39;;;;;;;2.83;1.03;;;29.00;29.30;;;;;;5051529;28;20211;-75
2022/04/03 05:03:06;;;;;;;5.00;1.20;;;28.10;30.60;;;;;;5054219;28;20290;-77
2022/04/03 05:05:34;;;;;;;3.10;1.20;;;27.60;31.20;;;;;;5046578;28;20203;-73
2022/04/03 05:08:02;;;;;;;2.70;1.03;;;26.60;33.90;;;;;;5052478;28;20203;-74
2022/04/03 05:10:31;;;;;;;6.60;1.30;;;26.40;34.60;;;;;;5039567;28;20196;-77
2022/04/03 05:13:00;;;;;;;4.37;1.27;;;26.50;33.80;;;;;;5054961;28;20234;-74
2022/04/03 05:15:30;;;;;;;2.00;0.90;;;26.50;35.40;;;;;;5054612;28;20630;-75
2022/04/03 05:17:59;;;;;;;5.43;1.00;;;26.50;35.20;;;;;;5054860;28;20202;-72
2022/04/03 05:20:27;;;;;;;2.57;1.13;;;26.40;35.70;;;;;;5048105;28;20278;-75
2022/04/03 05:22:55;;;;;;;4.90;1.23;;;26.30;35.50;;;;;;5034792;28;20639;-80
2022/04/03 05:25:22;;;;;;;2.60;1.20;;;26.30;35.00;;;;;;5052161;28;20190;-77
2022/04/03 05:27:50;;;;;;;7.40;1.40;;;26.10;34.40;;;;;;5054048;28;20199;-78
2022/04/03 05:30:17;;;;;;;2.83;1.00;;;26.20;33.70;;;;;;5054622;28;20586;-80
2022/04/03 05:32:45;;;;;;;1.83;1.00;;;26.10;32.90;;;;;;5046001;28;20543;-77
2022/04/03 05:35:13;;;;;;;2.57;1.10;;;26.00;32.10;;;;;;5049182;28;20177;-79
2022/04/03 05:37:41;;;;;;;1.60;0.80;;;25.90;31.90;;;;;;5052986;28;20187;-78
2022/04/03 05:40:11;;;;;;;4.87;1.10;;;25.90;32.80;;;;;;5054426;28;20183;-79
2022/04/03 05:42:39;;;;;;;4.00;1.80;;;25.80;33.30;;;;;;5053354;28;20187;-76
2022/04/03 05:45:07;;;;;;;1.63;0.90;;;25.80;33.50;;;;;;5047805;28;20191;-81
2022/04/03 05:47:35;;;;;;;4.50;1.40;;;25.80;33.20;;;;;;5034463;28;20175;-77
2022/04/03 05:50:03;;;;;;;3.63;1.17;;;25.80;33.20;;;;;;5045536;28;20662;-77
2022/04/03 05:52:44;;;;;;;6.00;1.10;;;25.80;33.40;;;;;;5052966;28;20195;-77
2022/04/03 05:55:11;;;;;;;5.03;1.07;;;25.80;33.40;;;;;;5054163;28;20251;-79
2022/04/03 05:57:39;;;;;;;2.00;0.90;;;25.90;33.40;;;;;;5053559;28;20187;-76
2022/04/03 06:00:12;;;;;;;3.47;1.50;;;25.80;33.30;;;;;;5049874;28;20180;-78
2022/04/03 06:02:59;;;;;;;4.63;1.27;;;25.70;33.50;;;;;;5043842;28;20183;-78
2022/04/03 06:05:33;;;;;;;4.47;1.17;;;25.60;34.10;;;;;;5048572;28;20188;-78
2022/04/03 06:08:01;;;;;;;6.13;1.27;;;25.50;37.60;;;;;;5049171;28;20259;-78
2022/04/03 06:10:29;;;;;;;2.50;1.10;;;25.30;39.50;;;;;;5052487;28;20192;-79
2022/04/03 06:12:58;;;;;;;9.50;1.20;;;24.90;40.20;;;;;;5052929;28;20176;-75
2022/04/03 06:15:28;;;;;;;5.80;1.47;;;24.80;40.90;;;;;;5052600;28;20188;-77
2022/04/03 06:17:55;;;;;;;6.30;1.47;;;24.80;41.00;;;;;;5046049;28;20179;-77
2022/04/03 06:20:23;;;;;;;3.23;1.50;;;24.70;41.50;;;;;;5052161;28;20207;-78
2022/04/03 06:22:52;;;;;;;2.07;1.43;;;24.60;41.50;;;;;;5050930;28;20229;-78
2022/04/03 06:25:20;;;;;;;4.70;1.43;;;24.50;41.80;;;;;;5047654;28;20279;-78
2022/04/03 06:27:48;;;;;;;3.63;1.77;;;24.40;42.10;;;;;;5052293;28;20259;-78
2022/04/03 06:30:15;;;;;;;6.10;1.53;;;24.30;42.70;;;;;;5052313;28;20250;-77
2022/04/03 06:32:43;;;;;;;5.50;1.70;;;24.30;42.60;;;;;;5049738;28;20275;-77
2022/04/03 06:35:11;;;;;;;2.77;1.43;;;24.30;42.50;;;;;;5038457;28;20172;-78
2022/04/03 06:37:38;;;;;;;12.27;2.00;;;24.20;42.70;;;;;;5053141;28;20225;-76
2022/04/03 06:40:07;;;;;;;2.57;1.43;;;24.20;43.10;;;;;;5052632;28;20182;-78
2022/04/03 06:42:35;;;;;;;8.30;1.90;;;24.10;42.40;;;;;;5053202;28;20258;-77
2022/04/03 06:45:04;;;;;;;3.83;1.80;;;24.10;42.80;;;;;;5051476;28;20223;-77
2022/04/03 06:47:32;;;;;;;3.77;1.70;;;24.00;43.20;;;;;;5053391;28;20646;-75
2022/04/03 06:50:00;;;;;;;2.87;1.93;;;24.00;42.90;;;;;;5052708;28;20172;-76
2022/04/03 06:52:27;;;;;;;5.60;1.87;;;23.90;43.00;;;;;;5052118;28;20168;-77
2022/04/03 06:54:55;;;;;;;3.27;1.80;;;23.90;42.80;;;;;;5053282;28;20241;-74
2022/04/03 06:57:22;;;;;;;3.80;1.80;;;23.80;42.80;;;;;;5047333;28;20216;-74
2022/04/03 06:59:50;;;;;;;7.10;2.13;;;23.80;43.20;;;;;;5051987;28;20175;-74
2022/04/03 07:02:17;;;;;;;3.90;1.97;;;23.80;43.00;;;;;;5052852;28;20701;-75
2022/04/03 07:04:45;;;;;;;7.53;2.10;;;23.80;43.20;;;;;;5051847;28;20232;-74
2022/04/03 07:07:20;;;;;;;6.03;2.10;;;23.70;43.40;;;;;;5051946;28;20195;-76
2022/04/03 07:09:47;;;;;;;4.83;2.13;;;23.60;43.10;;;;;;5052701;28;20645;-76
2022/04/03 07:12:15;;;;;;;3.47;2.23;;;23.60;42.70;;;;;;5052320;28;20898;-76
2022/04/03 07:14:42;;;;;;;5.07;2.00;;;23.50;43.40;;;;;;5051511;28;20175;-78
2022/04/03 07:17:10;;;;;;;4.63;2.10;;;23.40;43.30;;;;;;5051406;28;20180;-76
2022/04/03 07:19:37;;;;;;;4.77;2.10;;;23.40;43.10;;;;;;5047846;28;20188;-77
2022/04/03 07:22:05;;;;;;;7.13;2.63;;;23.30;42.90;;;;;;5052137;28;20223;-78
2022/04/03 07:24:32;;;;;;;6.23;2.20;;;23.30;43.30;;;;;;5050830;28;20269;-77
2022/04/03 07:27:00;;;;;;;6.23;1.93;;;23.30;43.40;;;;;;5050783;28;20191;-75
2022/04/03 07:29:27;;;;;;;9.40;2.10;;;23.20;43.20;;;;;;5050355;28;20540;-77
2022/04/03 07:31:55;;;;;;;6.40;1.90;;;23.20;43.20;;;;;;5051223;28;20192;-76
2022/04/03 07:34:23;;;;;;;6.00;2.00;;;23.20;42.20;;;;;;5044554;28;20185;-79
2022/04/03 07:36:50;;;;;;;4.30;2.10;;;23.30;41.90;;;;;;5050262;28;20192;-76
2022/04/03 07:39:18;;;;;;;6.13;1.67;;;23.20;42.60;;;;;;5052249;28;20226;-78
2022/04/03 07:41:45;;;;;;;3.70;1.93;;;23.10;41.60;;;;;;5050589;28;20231;-74
2022/04/03 07:44:13;;;;;;;7.13;1.80;;;23.00;41.90;;;;;;5051590;28;20203;-76
2022/04/03 07:46:40;;;;;;;6.57;1.90;;;23.00;42.10;;;;;;5051346;28;20179;-77
2022/04/03 07:49:08;;;;;;;5.37;2.13;;;23.00;42.50;;;;;;5041463;28;20642;-77
2022/04/03 07:51:35;;;;;;;5.77;1.60;;;22.90;42.50;;;;;;5052671;28;20656;-77
2022/04/03 07:54:03;;;;;;;10.77;2.23;;;22.80;42.50;;;;;;5055754;28;20241;-75
2022/04/03 07:56:30;;;;;;;4.73;1.97;;;22.80;42.60;;;;;;5055423;28;20176;-75
2022/04/03 07:58:58;;;;;;;3.60;1.50;;;22.80;42.20;;;;;;5055533;28;20203;-75
2022/04/03 08:01:25;;;;;;;6.30;3.10;;;22.80;42.80;;;;;;5055312;28;20211;-76
2022/04/03 08:03:52;;;;;;;5.43;1.77;;;22.70;43.10;;;;;;5053986;28;20532;-74
2022/04/03 08:06:20;;;;;;;4.77;1.87;;;22.70;42.60;;;;;;5055762;28;20203;-76
2022/04/03 08:08:47;;;;;;;2.30;1.60;;;22.60;42.80;;;;;;5055565;28;20187;-75
2022/04/03 08:11:15;;;;;;;3.83;1.57;;;22.60;42.50;;;;;;5055554;28;20180;-74
2022/04/03 08:13:42;;;;;;;3.77;1.63;;;22.50;42.60;;;;;;5055969;28;20172;-77
2022/04/03 08:16:09;;;;;;;2.73;1.57;;;22.50;42.90;;;;;;5055753;28;20172;-78
2022/04/03 08:18:37;;;;;;;5.07;1.80;;;22.40;42.90;;;;;;5056393;28;20238;-77
2022/04/03 08:21:04;;;;;;;2.50;1.53;;;22.30;42.70;;;;;;5054831;28;20284;-77
2022/04/03 08:23:31;;;;;;;4.47;1.73;;;22.30;42.60;;;;;;5055907;28;20653;-76
2022/04/03 08:25:59;;;;;;;6.10;1.53;;;22.30;42.70;;;;;;5053181;28;20183;-78
2022/04/03 08:28:28;;;;;;;3.80;1.60;;;22.30;42.30;;;;;;5052932;28;20180;-78
2022/04/03 08:30:56;;;;;;;2.37;1.50;;;22.30;42.30;;;;;;5050539;28;20195;-77
2022/04/03 08:33:23;;;;;;;4.37;1.40;;;22.30;42.10;;;;;;5052980;28;20226;-77
2022/04/03 08:35:51;;;;;;;5.07;1.50;;;22.30;42.70;;;;;;5054003;28;20225;-79
2022/04/03 08:38:18;;;;;;;7.37;1.90;;;22.20;42.50;;;;;;5050228;28;20187;-74
2022/04/03 08:40:46;;;;;;;3.17;1.60;;;22.20;42.40;;;;;;5055047;28;20570;-76
2022/04/03 08:43:13;;;;;;;3.67;1.43;;;22.20;42.60;;;;;;5053098;28;20622;-74
2022/04/03 08:45:41;;;;;;;2.83;1.43;;;22.10;42.60;;;;;;5054894;28;20184;-75
2022/04/03 08:48:09;;;;;;;4.67;1.40;;;22.00;43.00;;;;;;5055606;28;20186;-76
2022/04/03 08:50:39;;;;;;;4.93;1.43;;;22.00;43.10;;;;;;5038399;28;20280;-77
2022/04/03 08:53:08;;;;;;;3.87;1.67;;;22.00;43.30;;;;;;5038472;28;20230;-76
2022/04/03 08:55:36;;;;;;;4.63;2.00;;;21.90;43.40;;;;;;5054859;28;20210;-75
2022/04/03 08:58:04;;;;;;;5.50;1.90;;;21.80;43.80;;;;;;5047593;28;20180;-74
2022/04/03 09:00:33;;;;;;;1.80;1.20;;;21.80;44.00;;;;;;5048619;28;20306;-77
2022/04/03 09:03:01;;;;;;;6.07;1.67;;;21.80;43.60;;;;;;5053698;28;20176;-75
2022/04/03 09:05:39;;;;;;;4.10;1.80;;;21.80;43.70;;;;;;5053882;28;20172;-76
2022/04/03 09:08:07;;;;;;;5.17;1.40;;;21.80;43.60;;;;;;5054128;28;20186;-76
2022/04/03 09:10:35;;;;;;;7.87;1.70;;;21.80;43.80;;;;;;5054418;28;20214;-75
2022/04/03 09:13:03;;;;;;;2.73;1.50;;;21.70;44.00;;;;;;5054828;28;20180;-78
2022/04/03 09:15:32;;;;;;;2.63;1.47;;;21.60;43.70;;;;;;5054255;28;20214;-77
2022/04/03 09:18:04;;;;;;;5.37;1.70;;;21.60;44.10;;;;;;5054140;28;20234;-76
2022/04/03 09:20:34;;;;;;;2.33;1.33;;;21.60;44.20;;;;;;5053881;28;20207;-76
2022/04/03 09:23:04;;;;;;;4.50;1.70;;;21.60;44.10;;;;;;5052158;28;20180;-75
2022/04/03 09:25:37;;;;;;;3.40;1.63;;;21.50;44.00;;;;;;5053673;28;20191;-74
2022/04/03 09:28:06;;;;;;;7.33;1.40;;;21.50;43.60;;;;;;5052708;28;20180;-73
2022/04/03 09:30:39;;;;;;;8.10;1.67;;;21.50;43.90;;;;;;5052697;28;20188;-74
2022/04/03 09:33:08;;;;;;;2.67;1.40;;;21.50;43.70;;;;;;5054400;28;20188;-74
2022/04/03 09:35:57;;;;;;;3.23;1.47;;;21.40;44.20;;;;;;5054251;28;20646;-75
2022/04/03 09:38:29;;;;;;;1.90;1.20;;;21.30;44.20;;;;;;5052075;28;20302;-75
2022/04/03 09:40:58;;;;;;;1.90;1.40;;;21.30;43.80;;;;;;5052785;28;20239;-75
2022/04/03 09:43:27;;;;;;;7.53;1.70;;;21.30;44.00;;;;;;5054295;28;20525;-77
2022/04/03 09:45:59;;;;;;;1.40;1.03;;;21.30;44.40;;;;;;5053200;28;20174;-77
2022/04/03 09:48:41;;;;;;;3.20;1.60;;;21.30;44.30;;;;;;5052041;28;20593;-76
2022/04/03 09:51:09;;;;;;;2.17;1.20;;;21.30;44.40;;;;;;5054566;28;20582;-77
2022/04/03 09:53:52;;;;;;;4.73;1.10;;;21.30;44.10;;;;;;5055565;28;20184;-77
2022/04/03 09:56:25;;;;;;;10.07;1.73;;;21.20;44.70;;;;;;5054404;28;20254;-77
2022/04/03 09:58:53;;;;;;;3.00;1.53;;;21.20;44.20;;;;;;5053063;28;20175;-77
2022/04/03 10:01:35;;;;;;;2.83;1.43;;;21.20;44.60;;;;;;5053544;28;20230;-77
2022/04/03 10:04:04;;;;;;;2.47;1.47;;;21.20;44.80;;;;;;5033742;28;20669;-76
2022/04/03 10:06:33;;;;;;;4.80;2.23;;;21.10;45.20;;;;;;5034222;28;20177;-77
2022/04/03 10:09:02;;;;;;;6.40;2.23;;;21.00;45.40;;;;;;5037926;28;20873;-75
2022/04/03 10:11:30;;;;;;;6.40;2.10;;;21.00;45.40;;;;;;5052221;28;20245;-77
2022/04/03 10:14:00;;;;;;;3.83;1.67;;;20.90;46.10;;;;;;5033636;28;20168;-77
2022/04/03 10:16:28;;;;;;;3.67;1.80;;;20.80;45.80;;;;;;5032997;28;20210;-76
2022/04/03 10:18:57;;;;;;;4.33;1.50;;;20.80;45.90;;;;;;5051131;28;20184;-77
2022/04/03 10:21:38;;;;;;;3.80;1.40;;;20.80;45.70;;;;;;5053369;28;20251;-77
2022/04/03 10:24:07;;;;;;;4.30;1.47;;;20.80;46.00;;;;;;5053288;28;20245;-76
2022/04/03 10:26:39;;;;;;;5.77;1.67;;;20.80;45.50;;;;;;5052854;28;20196;-77
2022/04/03 10:29:09;;;;;;;4.83;1.53;;;20.70;46.00;;;;;;5051384;28;20215;-77
2022/04/03 10:31:38;;;;;;;2.87;1.60;;;20.60;46.10;;;;;;5046570;28;20190;-77
2022/04/03 10:34:06;;;;;;;3.57;1.47;;;20.50;46.30;;;;;;5052028;28;20176;-76
2022/04/03 10:36:38;;;;;;;6.20;1.97;;;20.50;47.20;;;;;;5052442;28;20194;-76
2022/04/03 10:39:10;;;;;;;4.57;1.60;;;20.30;47.40;;;;;;5051815;28;20211;-74
2022/04/03 10:41:43;;;;;;;2.73;1.37;;;20.30;48.40;;;;;;5053108;28;20220;-76
2022/04/03 10:44:18;;;;;;;5.90;1.60;;;20.30;47.90;;;;;;5051915;28;20186;-76
2022/04/03 10:47:03;;;;;;;2.17;1.47;;;20.30;48.30;;;;;;5052638;28;20825;-77
2022/04/03 10:49:43;;;;;;;3.30;1.80;;;20.20;48.60;;;;;;5051922;28;20637;-77
2022/04/03 10:52:24;;;;;;;3.80;1.40;;;20.20;48.50;;;;;;5051748;28;20267;-77
2022/04/03 10:54:54;;;;;;;2.93;1.20;;;20.00;49.00;;;;;;5053069;28;20180;-77
2022/04/03 10:57:46;;;;;;;3.00;1.53;;;20.00;49.20;;;;;;5050104;28;20211;-78
2022/04/03 11:00:13;;;;;;;2.53;1.33;;;20.00;48.70;;;;;;5050925;28;20184;-77
2022/04/03 11:02:51;;;;;;;3.60;1.30;;;20.00;48.60;;;;;;5049823;28;20668;-77
2022/04/03 11:05:27;;;;;;;3.87;1.50;;;20.10;48.50;;;;;;5052427;28;20175;-76
2022/04/03 11:08:01;;;;;;;3.10;1.30;;;20.10;48.90;;;;;;5051757;28;20211;-77
2022/04/03 11:11:08;;;;;;;4.83;1.67;;;20.00;49.30;;;;;;5052160;28;20172;-77
2022/04/03 11:13:36;;;;;;;7.23;1.60;;;20.10;49.30;;;;;;5052111;28;20176;-77
2022/04/03 11:16:12;;;;;;;5.47;1.47;;;20.00;49.50;;;;;;5051497;28;20242;-77
2022/04/03 11:18:49;;;;;;;3.73;2.23;;;20.00;49.40;;;;;;5051989;28;20188;-77
2022/04/03 11:21:22;;;;;;;3.33;1.87;;;20.10;49.40;;;;;;5051446;28;20298;-76
2022/04/03 11:24:10;;;;;;;2.70;1.30;;;20.30;48.30;;;;;;5042712;28;20537;-76
2022/04/03 11:26:39;;;;;;;3.47;1.30;;;20.30;48.50;;;;;;5047561;28;20211;-76
2022/04/03 11:29:10;;;;;;;1.60;1.23;;;20.30;48.30;;;;;;5051699;28;20711;-76
2022/04/03 11:31:40;;;;;;;3.30;1.63;;;20.30;48.90;;;;;;5052179;28;20183;-76
2022/04/03 11:34:09;;;;;;;5.20;1.37;;;20.30;48.70;;;;;;5052134;28;20175;-76
2022/04/03 11:36:36;;;;;;;4.83;1.30;;;20.30;48.60;;;;;;5051894;28;20278;-75
2022/04/03 11:39:08;;;;;;;4.90;1.10;;;20.30;48.80;;;;;;5052988;28;20638;-74
2022/04/03 11:41:38;;;;;;;2.47;1.13;;;20.30;48.30;;;;;;5052120;28;20226;-75
2022/04/03 11:44:10;;;;;;;1.70;1.03;;;20.30;48.70;;;;;;5049612;28;20207;-76
2022/04/03 11:46:45;;;;;;;3.73;1.20;;;20.30;48.10;;;;;;5051160;28;20226;-77
2022/04/03 11:49:18;;;;;;;5.03;1.20;;;20.30;47.60;;;;;;5051963;28;20707;-79
2022/04/03 11:51:47;;;;;;;3.40;1.20;;;20.50;46.80;;;;;;5051985;28;20182;-75
2022/04/03 11:54:17;;;;;;;1.90;1.27;;;20.50;46.30;;;;;;5052114;28;20209;-75
2022/04/03 11:56:44;;;;;;;2.23;1.20;;;20.50;46.70;;;;;;5052477;28;20699;-76
2022/04/03 11:59:12;;;;;;;3.60;1.10;;;20.40;46.80;;;;;;5051971;28;20642;-75
2022/04/03 12:01:49;;;;;;;3.37;1.00;;;20.40;46.90;;;;;;5051937;28;20562;-76
2022/04/03 12:04:18;;;;;;;1.20;0.90;;;20.40;46.30;;;;;;5051671;28;20638;-75
2022/04/03 12:06:47;;;;;;;2.53;0.90;;;20.30;46.40;;;;;;5052502;28;20198;-76
2022/04/03 12:09:16;;;;;;;1.70;1.10;;;20.30;46.60;;;;;;5052360;28;20191;-76
2022/04/03 12:11:48;;;;;;;2.60;1.23;;;20.30;47.00;;;;;;5051560;28;20184;-76
2022/04/03 12:14:33;;;;;;;1.77;1.00;;;20.20;47.30;;;;;;5042195;28;20240;-76
2022/04/03 12:17:09;;;;;;;3.77;2.00;;;20.20;47.40;;;;;;5051223;28;20215;-77
2022/04/03 12:19:44;;;;;;;2.73;1.10;;;20.20;47.40;;;;;;5052012;28;20183;-78
2022/04/03 12:22:18;;;;;;;3.93;1.40;;;20.10;47.30;;;;;;5052110;28;20676;-76
2022/04/03 12:24:47;;;;;;;4.97;1.10;;;20.00;47.30;;;;;;5052064;28;20180;-76
2022/04/03 12:27:22;;;;;;;3.33;1.20;;;20.00;47.50;;;;;;5051670;28;20188;-76
2022/04/03 12:29:52;;;;;;;4.13;1.40;;;19.90;47.90;;;;;;5051051;28;20225;-76
2022/04/03 12:32:35;;;;;;;1.63;0.90;;;19.80;48.30;;;;;;5050214;28;20177;-76
2022/04/03 12:35:06;;;;;;;1.90;1.00;;;19.80;48.30;;;;;;5051864;28;20180;-76
2022/04/03 12:37:41;;;;;;;1.80;1.00;;;19.90;48.10;;;;;;5051859;28;20180;-77
2022/04/03 12:40:11;;;;;;;2.43;1.17;;;19.90;48.30;;;;;;5054873;28;20236;-77
2022/04/03 12:42:43;;;;;;;3.30;1.10;;;19.80;48.60;;;;;;5055711;28;20227;-76
2022/04/03 12:45:17;;;;;;;2.40;1.00;;;19.70;49.40;;;;;;5055658;28;20176;-77
2022/04/03 12:48:01;;;;;;;2.50;1.17;;;19.70;49.20;;;;;;5055654;28;20209;-77
2022/04/03 12:50:31;;;;;;;1.80;0.90;;;19.70;48.70;;;;;;5055413;28;20218;-75
2022/04/03 12:53:03;;;;;;;1.60;1.10;;;19.70;49.10;;;;;;5055626;28;20216;-76
2022/04/03 12:55:33;;;;;;;1.67;1.10;;;19.70;49.30;;;;;;5052400;28;20218;-77
2022/04/03 13:00:52;;;;;;;3.70;1.10;;;19.50;49.60;;;;;;5035557;28;20304;-77